createdAt,value
2023-05-10T00:00:56.951Z,100457.13
2023-05-10T00:03:26.921Z,100459.00
2023-05-10T00:05:55.388Z,100452.72
2023-05-10T00:08:23.653Z,100457.28
2023-05-10T00:10:52.806Z,100450.16
2023-05-10T00:13:21.028Z,100449.31
2023-05-10T00:15:49.136Z,100444.91
2023-05-10T00:18:17.479Z,100452.19
2023-05-10T00:20:47.356Z,100451.34
2023-05-10T00:23:16.114Z,100449.63
2023-05-10T00:25:44.228Z,100445.22
2023-05-10T00:28:12.748Z,100440.81
2023-05-10T00:30:40.920Z,100440.81
2023-05-10T00:33:09.113Z,100445.38
2023-05-10T00:35:37.356Z,100437.25
2023-05-10T00:38:07.147Z,100444.66
2023-05-10T00:40:35.225Z,100446.53
2023-05-10T00:43:03.993Z,100448.38
2023-05-10T00:45:33.147Z,100446.69
2023-05-10T00:48:03.332Z,100446.84
2023-05-10T00:50:32.661Z,100443.28
2023-05-10T00:53:01.735Z,100440.72
2023-05-10T00:55:32.100Z,100442.59
2023-05-10T00:58:00.166Z,100442.72
2023-05-10T01:00:31.122Z,100430.16
2023-05-10T01:03:00.705Z,100428.47
2023-05-10T01:05:29.100Z,100434.03
2023-05-10T01:07:58.761Z,100436.75
2023-05-10T01:10:29.125Z,100431.50
2023-05-10T01:12:59.010Z,100430.63
2023-05-10T01:15:28.476Z,100430.78
2023-05-10T01:17:59.216Z,100427.06
2023-05-10T01:20:32.208Z,100431.81
2023-05-10T01:23:09.546Z,100424.69
2023-05-10T01:26:12.908Z,100427.53
2023-05-10T01:29:14.842Z,100426.66
2023-05-10T01:32:15.031Z,100420.41
2023-05-10T01:34:53.078Z,100425.97
2023-05-10T01:37:27.323Z,100422.41
2023-05-10T01:40:13.185Z,100418.84
2023-05-10T01:42:48.786Z,100420.88
2023-05-10T01:45:27.590Z,100417.31
2023-05-10T01:48:06.536Z,100421.88
2023-05-10T01:50:36.425Z,100417.47
2023-05-10T01:53:08.251Z,100426.56
2023-05-10T01:55:41.911Z,100424.88
2023-05-10T01:58:15.434Z,100424.03
2023-05-10T02:00:46.696Z,100407.91
2023-05-10T02:03:20.666Z,100413.34
2023-05-10T02:05:52.101Z,100417.91
2023-05-10T02:08:24.222Z,100410.78
2023-05-10T02:10:57.847Z,100409.09
2023-05-10T02:13:28.068Z,100408.25
2023-05-10T02:15:57.661Z,100401.13
2023-05-10T02:18:29.185Z,100403.81
2023-05-10T02:20:58.578Z,100402.13
2023-05-10T02:23:28.049Z,100403.13
2023-05-10T02:25:59.046Z,100396.84
2023-05-10T02:28:28.846Z,100398.69
2023-05-10T02:31:00.760Z,100397.00
2023-05-10T02:33:34.192Z,100398.97
2023-05-10T02:36:04.694Z,100393.56
2023-05-10T02:38:35.326Z,100403.53
2023-05-10T02:41:04.112Z,100399.97
2023-05-10T02:43:34.458Z,100405.41
2023-05-10T02:46:02.685Z,100398.28
2023-05-10T02:48:32.967Z,100402.00
2023-05-10T02:51:06.720Z,100396.56
2023-05-10T02:53:42.019Z,100404.84
2023-05-10T02:56:16.325Z,100402.16
2023-05-10T02:58:44.475Z,100403.16
2023-05-10T03:01:12.593Z,100406.84
2023-05-10T03:03:42.081Z,100406.84
2023-05-10T03:06:10.618Z,100400.56
2023-05-10T03:08:39.143Z,100409.72
2023-05-10T03:11:34.257Z,100398.88
2023-05-10T03:14:15.262Z,100402.59
2023-05-10T03:16:49.328Z,100400.03
2023-05-10T03:19:31.392Z,100400.88
2023-05-10T03:22:07.324Z,100401.91
2023-05-10T03:24:37.766Z,100397.47
2023-05-10T03:27:06.463Z,100403.75
2023-05-10T03:29:35.915Z,100399.50
2023-05-10T03:32:05.396Z,100401.19
2023-05-10T03:34:35.295Z,100400.34
2023-05-10T03:37:03.617Z,100399.50
2023-05-10T03:39:34.571Z,100397.78
2023-05-10T03:42:02.632Z,100396.06
2023-05-10T03:44:30.709Z,100403.34
2023-05-10T03:47:01.730Z,100397.06
2023-05-10T03:49:29.972Z,100398.06
2023-05-10T03:52:06.282Z,100403.50
2023-05-10T03:54:34.322Z,100402.63
2023-05-10T03:57:05.144Z,100404.50
2023-05-10T03:59:33.580Z,100401.78
2023-05-10T04:02:01.690Z,100400.09
2023-05-10T04:04:29.835Z,100400.09
2023-05-10T04:06:57.880Z,100405.50
2023-05-10T04:09:27.426Z,100399.25
2023-05-10T04:11:58.436Z,100408.22
2023-05-10T04:14:26.825Z,100398.38
2023-05-10T04:16:55.005Z,100392.13
2023-05-10T04:19:23.126Z,100397.53
2023-05-10T04:21:51.230Z,100393.97
2023-05-10T04:24:19.724Z,100403.09
2023-05-10T04:26:49.438Z,100393.28
2023-05-10T04:29:17.628Z,100397.69
2023-05-10T04:31:49.878Z,100405.81
2023-05-10T04:34:18.094Z,100402.38
2023-05-10T04:36:46.440Z,100403.25
2023-05-10T04:39:15.859Z,100397.84
2023-05-10T04:41:43.999Z,100407.78
2023-05-10T04:44:13.551Z,100401.53
2023-05-10T04:46:41.735Z,100401.69
2023-05-10T04:49:09.958Z,100406.09
2023-05-10T04:51:38.046Z,100398.97
2023-05-10T04:54:08.575Z,100399.97
2023-05-10T04:56:36.954Z,100404.38
2023-05-10T04:59:05.109Z,100407.09
2023-05-10T05:01:34.700Z,100405.41
2023-05-10T05:04:03.167Z,100410.66
2023-05-10T05:06:31.260Z,100402.69
2023-05-10T05:08:59.822Z,100407.25
2023-05-10T05:11:28.014Z,100410.81
2023-05-10T05:13:56.180Z,100406.41
2023-05-10T05:16:24.287Z,100410.13
2023-05-10T05:18:53.868Z,100411.97
2023-05-10T05:21:22.543Z,100415.53
2023-05-10T05:23:50.664Z,100407.41
2023-05-10T05:26:21.529Z,100411.81
2023-05-10T05:28:52.733Z,100420.09
2023-05-10T05:31:20.894Z,100419.25
2023-05-10T05:33:48.976Z,100414.69
2023-05-10T05:36:18.450Z,100418.09
2023-05-10T05:38:46.597Z,100420.94
2023-05-10T05:41:14.832Z,100429.78
2023-05-10T05:43:43.066Z,100424.34
2023-05-10T05:46:11.372Z,100424.34
2023-05-10T05:48:39.560Z,100431.47
2023-05-10T05:51:07.659Z,100427.91
2023-05-10T05:53:37.416Z,100427.91
2023-05-10T05:56:06.403Z,100435.19
2023-05-10T05:58:34.799Z,100427.06
2023-05-10T06:01:02.982Z,100438.75
2023-05-10T06:03:31.837Z,100432.47
2023-05-10T06:06:00.023Z,100437.75
2023-05-10T06:08:28.092Z,100434.19
2023-05-10T06:10:57.964Z,100435.88
2023-05-10T06:13:26.086Z,100435.88
2023-05-10T06:15:54.192Z,100436.88
2023-05-10T06:18:22.545Z,100446.72
2023-05-10T06:20:52.727Z,100435.88
2023-05-10T06:23:20.811Z,100447.56
2023-05-10T06:25:48.897Z,100440.28
2023-05-10T06:28:21.200Z,100439.31
2023-05-10T06:30:49.356Z,100444.75
2023-05-10T06:33:18.462Z,100449.16
2023-05-10T06:35:46.539Z,100454.56
2023-05-10T06:38:14.914Z,100456.25
2023-05-10T06:40:46.311Z,100450.84
2023-05-10T06:43:14.399Z,100450.84
2023-05-10T06:45:43.821Z,100447.13
2023-05-10T06:48:11.865Z,100447.13
2023-05-10T06:50:40.104Z,100449.69
2023-05-10T06:53:28.427Z,100448.84
2023-05-10T06:55:57.829Z,100447.84
2023-05-10T06:58:26.007Z,100441.41
2023-05-10T07:01:03.986Z,100440.41
2023-05-10T07:03:32.153Z,100443.13
2023-05-10T07:06:04.848Z,100450.22
2023-05-10T07:08:33.047Z,100443.84
2023-05-10T07:11:05.402Z,100445.53
2023-05-10T07:13:37.260Z,100443.69
2023-05-10T07:16:07.496Z,100449.97
2023-05-10T07:18:35.805Z,100444.53
2023-05-10T07:21:07.006Z,100444.38
2023-05-10T07:23:35.668Z,100437.97
2023-05-10T07:26:03.953Z,100450.50
2023-05-10T07:28:35.083Z,100441.53
2023-05-10T07:31:03.344Z,100432.38
2023-05-10T07:33:35.956Z,100432.22
2023-05-10T07:36:04.377Z,100422.25
2023-05-10T07:38:32.505Z,100431.09
2023-05-10T07:41:00.749Z,100421.13
2023-05-10T07:43:28.899Z,100423.66
2023-05-10T07:45:58.558Z,100433.50
2023-05-10T07:48:26.656Z,100430.63
2023-05-10T07:50:58.273Z,100423.34
2023-05-10T07:53:28.204Z,100418.66
2023-05-10T07:56:00.560Z,100420.38
2023-05-10T07:58:29.811Z,100430.22
2023-05-10T08:00:58.273Z,100429.06
2023-05-10T08:03:26.464Z,100428.06
2023-05-10T08:05:56.016Z,100427.91
2023-05-10T08:08:25.210Z,100435.03
2023-05-10T08:10:53.264Z,100434.88
2023-05-10T08:13:21.358Z,100430.28
2023-05-10T08:15:49.412Z,100431.03
2023-05-10T08:18:17.488Z,100426.44
2023-05-10T08:20:45.690Z,100429.00
2023-05-10T08:23:15.824Z,100432.41
2023-05-10T08:25:43.843Z,100429.69
2023-05-10T08:28:14.659Z,100435.81
2023-05-10T08:30:42.709Z,100428.53
2023-05-10T08:33:10.968Z,100424.81
2023-05-10T08:35:39.060Z,100426.50
2023-05-10T08:38:14.296Z,100430.97
2023-05-10T08:40:45.069Z,100431.66
2023-05-10T08:43:16.858Z,100426.06
2023-05-10T08:45:48.110Z,100425.06
2023-05-10T08:48:16.709Z,100425.75
2023-05-10T08:50:44.986Z,100422.88
2023-05-10T08:53:15.156Z,100417.47
2023-05-10T08:55:45.135Z,100425.47
2023-05-10T08:58:13.552Z,100428.88
2023-05-10T09:00:42.446Z,100425.84
2023-05-10T09:03:11.785Z,100425.69
2023-05-10T09:05:43.331Z,100429.25
2023-05-10T09:08:14.498Z,100420.09
2023-05-10T09:10:45.357Z,100423.53
2023-05-10T09:13:13.542Z,100425.25
2023-05-10T09:15:41.720Z,100424.22
2023-05-10T09:18:10.024Z,100425.94
2023-05-10T09:20:38.163Z,100422.22
2023-05-10T09:23:06.750Z,100414.75
2023-05-10T09:25:35.208Z,100420.03
2023-05-10T09:28:07.962Z,100419.91
2023-05-10T09:30:36.054Z,100412.44
2023-05-10T09:33:05.419Z,100412.44
2023-05-10T09:35:35.029Z,100414.84
2023-05-10T09:38:08.616Z,100414.00
2023-05-10T09:40:36.775Z,100407.41
2023-05-10T09:43:08.112Z,100409.09
2023-05-10T09:45:44.024Z,100407.28
2023-05-10T09:48:12.251Z,100409.81
2023-05-10T09:50:40.420Z,100408.81
2023-05-10T09:53:08.508Z,100404.25
2023-05-10T09:55:45.784Z,100400.34
2023-05-10T09:58:16.060Z,100408.31
2023-05-10T10:00:45.882Z,100398.16
2023-05-10T10:03:16.305Z,100401.75
2023-05-10T10:05:46.319Z,100398.88
2023-05-10T10:08:16.826Z,100387.88
2023-05-10T10:10:47.396Z,100378.56
2023-05-10T10:13:18.212Z,100389.25
2023-05-10T10:15:47.031Z,100382.81
2023-05-10T10:18:16.592Z,100370.81
2023-05-10T10:20:45.189Z,100382.53
2023-05-10T10:23:14.174Z,100376.97
2023-05-10T10:25:45.432Z,100376.81
2023-05-10T10:28:33.381Z,100371.06
2023-05-10T10:31:31.019Z,100362.75
2023-05-10T10:34:05.984Z,100360.75
2023-05-10T10:36:35.886Z,100363.31
2023-05-10T10:39:05.118Z,100369.41
2023-05-10T10:41:35.601Z,100362.13
2023-05-10T10:44:28.413Z,100363.81
2023-05-10T10:47:09.686Z,100353.53
2023-05-10T10:49:45.957Z,100360.47
2023-05-10T10:52:22.536Z,100358.47
2023-05-10T10:54:54.277Z,100360.16
2023-05-10T10:57:23.709Z,100348.13
2023-05-10T10:59:53.108Z,100347.81
2023-05-10T11:02:46.913Z,100345.63
2023-05-10T11:05:48.028Z,100340.03
2023-05-10T11:08:21.982Z,100332.56
2023-05-10T11:10:55.529Z,100325.31
2023-05-10T11:13:33.889Z,100327.69
2023-05-10T11:16:19.536Z,100321.06
2023-05-10T11:18:56.587Z,100331.59
2023-05-10T11:21:24.765Z,100319.44
2023-05-10T11:23:57.133Z,100320.97
2023-05-10T11:26:27.033Z,100317.06
2023-05-10T11:28:57.344Z,100319.78
2023-05-10T11:31:28.093Z,100313.03
2023-05-10T11:33:58.080Z,100309.97
2023-05-10T11:36:30.465Z,100293.50
2023-05-10T11:38:59.257Z,100290.63
2023-05-10T11:41:28.784Z,100295.75
2023-05-10T11:43:59.149Z,100302.88
2023-05-10T11:46:29.742Z,100301.00
2023-05-10T11:49:02.605Z,100298.97
2023-05-10T11:51:36.736Z,100295.41
2023-05-10T11:54:08.467Z,100297.94
2023-05-10T11:56:36.627Z,100299.66
2023-05-10T11:59:10.863Z,100300.50
2023-05-10T12:01:46.684Z,100306.78
2023-05-10T12:04:15.055Z,100303.06
2023-05-10T12:06:43.718Z,100304.78
2023-05-10T12:09:12.075Z,100289.31
2023-05-10T12:11:44.290Z,100296.47
2023-05-10T12:14:13.130Z,100291.03
2023-05-10T12:16:45.430Z,100303.59
2023-05-10T12:19:20.332Z,100303.59
2023-05-10T12:21:49.189Z,100304.25
2023-05-10T12:24:19.037Z,100300.69
2023-05-10T12:29:33.565Z,100288.69
2023-05-10T12:32:02.252Z,100286.69
2023-05-10T12:34:39.448Z,100293.81
2023-05-10T12:37:07.669Z,100290.06
2023-05-10T12:39:42.927Z,100282.59
2023-05-10T12:42:14.159Z,100282.59
2023-05-10T12:44:42.265Z,100270.03
2023-05-10T12:47:10.356Z,100276.16
2023-05-10T12:49:40.176Z,100273.44
2023-05-10T12:52:11.427Z,100277.00
2023-05-10T12:54:40.658Z,100269.69
2023-05-10T12:57:08.735Z,100274.94
2023-05-10T12:59:38.196Z,100267.66
2023-05-10T13:02:06.880Z,100256.78
2023-05-10T13:04:35.112Z,100252.06
2023-05-10T13:07:07.210Z,100257.31
2023-05-10T13:09:35.329Z,100255.44
2023-05-10T13:12:03.733Z,100249.00
2023-05-10T13:14:34.924Z,100255.28
2023-05-10T13:17:03.293Z,100251.53
2023-05-10T13:19:31.437Z,100246.59
2023-05-10T13:21:59.746Z,100240.19
2023-05-10T13:24:29.695Z,100244.59
2023-05-10T13:26:57.858Z,100230.00
2023-05-10T13:29:25.927Z,100231.69
2023-05-10T13:31:54.449Z,100222.50
2023-05-10T13:34:25.271Z,100224.22
2023-05-10T13:36:54.759Z,100215.03
2023-05-10T13:39:23.112Z,100213.00
2023-05-10T13:41:53.860Z,100216.41
2023-05-10T13:44:22.613Z,100214.03
2023-05-10T13:46:50.706Z,100209.63
2023-05-10T13:49:22.526Z,100206.03
2023-05-10T13:51:50.715Z,100206.72
2023-05-10T13:54:20.507Z,100210.09
2023-05-10T13:56:49.527Z,100204.34
2023-05-10T13:59:19.010Z,100189.91
2023-05-10T14:01:47.141Z,100197.91
2023-05-10T14:04:15.212Z,100196.69
2023-05-10T14:06:45.916Z,100189.56
2023-05-10T14:09:17.558Z,100187.53
2023-05-10T14:11:48.734Z,100194.34
2023-05-10T14:14:18.185Z,100188.53
2023-05-10T14:16:47.393Z,100188.38
2023-05-10T14:19:15.639Z,100185.28
2023-05-10T14:21:47.698Z,100190.22
2023-05-10T14:24:15.938Z,100174.41
2023-05-10T14:26:43.971Z,100174.94
2023-05-10T14:29:13.147Z,100171.19
2023-05-10T14:31:42.914Z,100176.28
2023-05-10T14:34:11.334Z,100175.25
2023-05-10T14:36:39.937Z,100175.25
2023-05-10T14:39:10.850Z,100181.22
2023-05-10T14:41:40.164Z,100172.91
2023-05-10T14:44:08.220Z,100177.97
2023-05-10T14:46:36.743Z,100179.69
2023-05-10T14:49:06.255Z,100171.53
2023-05-10T14:51:34.264Z,100169.81
2023-05-10T14:54:03.436Z,100174.41
2023-05-10T14:56:31.483Z,100182.75
2023-05-10T14:59:00.278Z,100177.31
2023-05-10T15:01:28.717Z,100178.34
2023-05-10T15:03:57.216Z,100183.78
2023-05-10T15:06:33.703Z,100184.81
2023-05-10T15:09:02.852Z,100178.50
2023-05-10T15:11:31.385Z,100180.38
2023-05-10T15:14:03.585Z,100177.81
2023-05-10T15:16:34.201Z,100179.50
2023-05-10T15:19:03.990Z,100178.66
2023-05-10T15:21:39.607Z,100176.13
2023-05-10T15:24:07.988Z,100177.97
2023-05-10T15:26:38.757Z,100175.25
2023-05-10T15:29:06.767Z,100177.97
2023-05-10T15:31:36.092Z,100173.56
2023-05-10T15:34:07.238Z,100169.97
2023-05-10T15:36:36.728Z,100171.84
2023-05-10T15:39:05.172Z,100169.81
2023-05-10T15:41:33.388Z,100174.94
2023-05-10T15:44:01.740Z,100161.50
2023-05-10T15:46:32.759Z,100157.25
2023-05-10T15:49:01.103Z,100159.97
2023-05-10T15:51:29.196Z,100158.25
2023-05-10T15:54:07.268Z,100156.56
2023-05-10T15:56:36.323Z,100164.72
2023-05-10T15:59:06.521Z,100165.56
2023-05-10T16:01:34.697Z,100158.63
2023-05-10T16:04:05.740Z,100165.94
2023-05-10T16:06:34.248Z,100160.50
2023-05-10T16:09:04.988Z,100169.66
2023-05-10T16:11:34.133Z,100172.53
2023-05-10T16:14:02.501Z,100166.25
2023-05-10T16:16:30.736Z,100167.09
2023-05-10T16:19:01.062Z,100169.16
2023-05-10T16:21:29.642Z,100162.03
2023-05-10T16:23:57.859Z,100163.72
2023-05-10T16:26:27.553Z,100162.19
2023-05-10T16:28:58.464Z,100170.34
2023-05-10T16:31:26.496Z,100166.78
2023-05-10T16:33:54.757Z,100164.06
2023-05-10T16:36:23.386Z,100173.25
2023-05-10T16:38:51.465Z,100182.44
2023-05-10T16:41:20.496Z,100175.25
2023-05-10T16:43:50.631Z,100178.16
2023-05-10T16:46:18.765Z,100177.31
2023-05-10T16:48:46.982Z,100170.19
2023-05-10T16:51:15.429Z,100178.34
2023-05-10T16:53:43.471Z,100173.94
2023-05-10T16:56:11.769Z,100182.94
2023-05-10T16:58:43.247Z,100188.53
2023-05-10T17:01:13.336Z,100181.41
2023-05-10T17:03:41.644Z,100192.28
2023-05-10T17:06:11.072Z,100185.16
2023-05-10T17:08:42.441Z,100195.19
2023-05-10T17:11:13.851Z,100196.03
2023-05-10T17:13:41.990Z,100193.47
2023-05-10T17:16:10.741Z,100192.59
2023-05-10T17:18:42.396Z,100199.91
2023-05-10T17:21:10.953Z,100190.91
2023-05-10T17:23:39.774Z,100201.78
2023-05-10T17:26:08.719Z,100202.81
2023-05-10T17:28:37.331Z,100203.81
2023-05-10T17:31:05.591Z,100202.97
2023-05-10T17:33:33.814Z,100202.13
2023-05-10T17:36:03.895Z,100201.28
2023-05-10T17:38:35.935Z,100200.44
2023-05-10T17:41:04.968Z,100208.59
2023-05-10T17:43:33.158Z,100209.63
2023-05-10T17:46:01.750Z,100212.34
2023-05-10T17:48:32.081Z,100209.78
2023-05-10T17:51:00.606Z,100208.94
2023-05-10T17:53:30.713Z,100209.97
2023-05-10T17:56:01.719Z,100221.81
2023-05-10T17:58:30.415Z,100220.97
2023-05-10T18:00:59.193Z,100215.72
2023-05-10T18:03:30.417Z,100222.84
2023-05-10T18:05:59.392Z,100215.03
2023-05-10T18:08:30.565Z,100224.03
2023-05-10T18:11:03.347Z,100222.53
2023-05-10T18:13:33.173Z,100224.22
2023-05-10T18:16:02.051Z,100223.56
2023-05-10T18:18:33.369Z,100235.44
2023-05-10T18:21:08.233Z,100228.28
2023-05-10T18:23:37.348Z,100241.88
2023-05-10T18:26:08.360Z,100242.88
2023-05-10T18:28:38.076Z,100242.22
2023-05-10T18:31:06.674Z,100247.66
2023-05-10T18:33:37.762Z,100248.66
2023-05-10T18:36:08.891Z,100251.38
2023-05-10T18:38:37.865Z,100250.53
2023-05-10T18:41:08.752Z,100256.81
2023-05-10T18:43:37.308Z,100253.25
2023-05-10T18:46:09.260Z,100255.97
2023-05-10T18:48:39.915Z,100253.25
2023-05-10T18:51:08.809Z,100254.09
2023-05-10T18:53:38.418Z,100260.56
2023-05-10T18:56:10.147Z,100262.44
2023-05-10T18:58:39.043Z,100263.44
2023-05-10T19:01:09.249Z,100263.44
2023-05-10T19:03:38.357Z,100261.75
2023-05-10T19:06:07.380Z,100269.06
2023-05-10T19:08:36.009Z,100270.06
2023-05-10T19:11:04.596Z,100271.06
2023-05-10T19:13:34.984Z,100274.63
2023-05-10T19:16:05.793Z,100277.53
2023-05-10T19:18:34.680Z,100272.09
2023-05-10T19:21:09.416Z,100281.25
2023-05-10T19:23:39.681Z,100274.13
2023-05-10T19:26:10.020Z,100275.16
2023-05-10T19:28:40.044Z,100277.19
2023-05-10T19:31:09.536Z,100283.47
2023-05-10T19:33:38.479Z,100272.78
2023-05-10T19:36:09.226Z,100274.63
2023-05-10T19:38:38.489Z,100274.78
2023-05-10T19:41:07.115Z,100277.50
2023-05-10T19:43:37.963Z,100273.94
2023-05-10T19:46:09.770Z,100272.22
2023-05-10T19:48:39.081Z,100273.25
2023-05-10T19:51:10.106Z,100268.00
2023-05-10T19:53:41.669Z,100276.16
2023-05-10T19:56:10.437Z,100269.00
2023-05-10T19:58:38.898Z,100267.31
2023-05-10T20:01:09.502Z,100270.03
2023-05-10T20:03:38.477Z,100271.72
2023-05-10T20:06:07.265Z,100271.91
2023-05-10T20:08:35.730Z,100273.78
2023-05-10T20:11:04.162Z,100262.91
2023-05-10T20:13:33.382Z,100267.66
2023-05-10T20:16:02.582Z,100270.38
2023-05-10T20:18:32.388Z,100265.78
2023-05-10T20:21:01.853Z,100269.50
2023-05-10T20:23:30.190Z,100272.38
2023-05-10T20:25:59.336Z,100275.09
2023-05-10T20:28:28.356Z,100274.38
2023-05-10T20:30:57.514Z,100276.13
2023-05-10T20:33:26.275Z,100275.41
2023-05-10T20:35:56.319Z,100272.69
2023-05-10T20:38:24.864Z,100275.56
2023-05-10T20:40:54.253Z,100269.31
2023-05-10T20:43:22.730Z,100274.72
2023-05-10T20:45:51.175Z,100278.47
2023-05-10T20:48:19.778Z,100274.91
2023-05-10T20:50:48.114Z,100275.03
2023-05-10T20:53:18.504Z,100278.78
2023-05-10T20:55:47.160Z,100270.78
2023-05-10T20:58:15.171Z,100276.22
2023-05-10T21:00:43.241Z,100276.41
2023-05-10T21:03:11.393Z,100278.25
2023-05-10T21:05:39.756Z,100271.97
2023-05-10T21:08:07.831Z,100270.28
2023-05-10T21:10:37.258Z,100274.03
2023-05-10T21:13:05.394Z,100272.31
2023-05-10T21:15:33.470Z,100263.47
2023-05-10T21:18:01.583Z,100270.75
2023-05-10T21:20:30.397Z,100272.63
2023-05-10T21:22:58.657Z,100270.09
2023-05-10T21:25:26.770Z,100273.81
2023-05-10T21:27:56.237Z,100272.97
2023-05-10T21:30:24.540Z,100269.56
2023-05-10T21:32:55.183Z,100274.16
2023-05-10T21:35:23.210Z,100271.63
2023-05-10T21:37:51.215Z,100262.63
2023-05-10T21:40:19.536Z,100267.16
2023-05-10T21:42:49.312Z,100268.19
2023-05-10T21:45:20.352Z,100271.91
2023-05-10T21:47:48.400Z,100276.50
2023-05-10T21:50:16.734Z,100272.25
2023-05-10T21:52:45.002Z,100265.13
2023-05-10T21:55:13.144Z,100268.88
2023-05-10T21:57:41.292Z,100272.59
2023-05-10T22:00:11.304Z,100272.59
2023-05-10T22:02:40.997Z,100280.88
2023-05-10T22:05:09.788Z,100266.63
2023-05-10T22:07:37.987Z,100277.47
2023-05-10T22:10:10.064Z,100284.78
2023-05-10T22:12:38.237Z,100283.06
2023-05-10T22:15:10.320Z,100285.78
2023-05-10T22:17:41.374Z,100284.09
2023-05-10T22:20:10.400Z,100283.41
2023-05-10T22:22:38.604Z,100280.69
2023-05-10T22:25:08.304Z,100289.84
2023-05-10T22:27:36.699Z,100288.16
2023-05-10T22:30:05.483Z,100286.44
2023-05-10T22:32:34.674Z,100290.16
2023-05-10T22:35:04.296Z,100290.31
2023-05-10T22:37:32.365Z,100289.47
2023-05-10T22:40:00.457Z,100281.50
2023-05-10T22:42:31.717Z,100283.38
2023-05-10T22:44:59.856Z,100280.66
2023-05-10T22:47:27.959Z,100281.66
2023-05-10T22:49:58.263Z,100288.13
2023-05-10T22:52:27.709Z,100290.84
2023-05-10T22:54:55.806Z,100291.84
2023-05-10T22:57:24.044Z,100296.56
2023-05-10T22:59:52.147Z,100292.88
2023-05-10T23:02:20.236Z,100291.31
2023-05-10T23:04:48.560Z,100299.44
2023-05-10T23:07:16.694Z,100298.59
2023-05-10T23:09:46.097Z,100295.19
2023-05-10T23:12:14.108Z,100301.63
2023-05-10T23:14:42.379Z,100301.63
2023-05-10T23:17:10.457Z,100293.66
2023-05-10T23:19:38.578Z,100290.09
2023-05-10T23:22:06.859Z,100299.25
2023-05-10T23:24:34.958Z,100292.25
2023-05-10T23:27:04.616Z,100300.41
2023-05-10T23:29:33.118Z,100301.41
2023-05-10T23:32:01.242Z,100297.00
2023-05-10T23:34:29.451Z,100297.00
2023-05-10T23:36:57.473Z,100299.03
2023-05-10T23:39:25.466Z,100310.75
2023-05-10T23:41:53.530Z,100301.91
2023-05-10T23:44:23.517Z,100308.34
2023-05-10T23:46:51.713Z,100314.81
2023-05-10T23:49:19.769Z,100315.78
2023-05-10T23:51:47.913Z,100311.38
2023-05-10T23:54:15.933Z,100315.09
2023-05-10T23:56:44.134Z,100311.69
2023-05-10T23:59:12.212Z,100319.84
